sensor_id;sensor_type;location;lat;lon;timestamp;pressure;altitude;pressure_sealevel;temperature;humidity
51259;BME280;37327;54.254;18.504;2022-07-29T00:01:01;101675.71;;;13.50;88.53
51259;BME280;37327;54.254;18.504;2022-07-29T00:04:10;101677.75;;;13.48;88.43
51259;BME280;37327;54.254;18.504;2022-07-29T00:07:22;101672.48;;;13.46;88.39
51259;BME280;37327;54.254;18.504;2022-07-29T00:10:34;101666.02;;;13.47;88.04
51259;BME280;37327;54.254;18.504;2022-07-29T00:13:46;101667.23;;;13.45;88.01
51259;BME280;37327;54.254;18.504;2022-07-29T00:17:00;101661.97;;;13.43;88.13
51259;BME280;37327;54.254;18.504;2022-07-29T00:20:08;101663.01;;;13.42;88.08
51259;BME280;37327;54.254;18.504;2022-07-29T00:23:38;101670.47;;;13.40;88.25
51259;BME280;37327;54.254;18.504;2022-07-29T00:26:44;101661.83;;;13.36;88.72
51259;BME280;37327;54.254;18.504;2022-07-29T00:29:59;101672.00;;;13.34;88.96
51259;BME280;37327;54.254;18.504;2022-07-29T00:33:09;101664.69;;;13.27;88.73
51259;BME280;37327;54.254;18.504;2022-07-29T00:36:20;101669.77;;;13.21;88.92
51259;BME280;37327;54.254;18.504;2022-07-29T00:42:46;101672.99;;;13.25;89.71
51259;BME280;37327;54.254;18.504;2022-07-29T00:45:50;101670.11;;;13.27;89.70
51259;BME280;37327;54.254;18.504;2022-07-29T00:49:00;101670.11;;;13.27;89.57
51259;BME280;37327;54.254;18.504;2022-07-29T00:52:12;101664.69;;;13.27;89.68
51259;BME280;37327;54.254;18.504;2022-07-29T00:55:23;101672.99;;;13.25;90.19
51259;BME280;37327;54.254;18.504;2022-07-29T00:58:34;101670.44;;;13.23;89.98
51259;BME280;37327;54.254;18.504;2022-07-29T01:01:41;101669.92;;;13.20;89.89
51259;BME280;37327;54.254;18.504;2022-07-29T01:04:55;101670.98;;;13.11;90.64
51259;BME280;37327;54.254;18.504;2022-07-29T01:08:03;101669.63;;;13.07;90.79
51259;BME280;37327;54.254;18.504;2022-07-29T01:11:19;101665.36;;;13.04;90.68
51259;BME280;37327;54.254;18.504;2022-07-29T01:14:32;101664.69;;;13.02;90.35
51259;BME280;37327;54.254;18.504;2022-07-29T01:17:45;101671.64;;;12.96;90.58
51259;BME280;37327;54.254;18.504;2022-07-29T01:21:07;101676.38;;;12.94;90.77
51259;BME280;37327;54.254;18.504;2022-07-29T01:24:30;101665.89;;;12.91;91.11
51259;BME280;37327;54.254;18.504;2022-07-29T01:27:44;101667.73;;;12.91;91.38
51259;BME280;37327;54.254;18.504;2022-07-29T01:30:55;101665.02;;;12.91;91.55
51259;BME280;37327;54.254;18.504;2022-07-29T01:34:08;101662.50;;;12.89;91.55
51259;BME280;37327;54.254;18.504;2022-07-29T01:37:27;101667.93;;;12.89;91.17
51259;BME280;37327;54.254;18.504;2022-07-29T01:40:42;101673.35;;;12.89;90.68
51259;BME280;37327;54.254;18.504;2022-07-29T01:43:57;101665.70;;;12.84;90.88
51259;BME280;37327;54.254;18.504;2022-07-29T01:47:14;101672.99;;;12.84;90.89
51259;BME280;37327;54.254;18.504;2022-07-29T01:50:32;101656.05;;;12.82;90.97
51259;BME280;37327;54.254;18.504;2022-07-29T01:53:47;101662.32;;;12.82;90.79
51259;BME280;37327;54.254;18.504;2022-07-29T01:57:01;101657.77;;;12.83;91.07
51259;BME280;37327;54.254;18.504;2022-07-29T02:00:11;101651.48;;;12.82;91.15
51259;BME280;37327;54.254;18.504;2022-07-29T02:03:23;101652.34;;;12.83;91.37
51259;BME280;37327;54.254;18.504;2022-07-29T02:06:40;101651.48;;;12.82;91.45
51259;BME280;37327;54.254;18.504;2022-07-29T02:09:52;101652.66;;;12.80;91.36
51259;BME280;37327;54.254;18.504;2022-07-29T02:13:03;101658.92;;;12.80;91.29
51259;BME280;37327;54.254;18.504;2022-07-29T02:16:17;101663.34;;;12.81;91.39
51259;BME280;37327;54.254;18.504;2022-07-29T02:19:33;101665.20;;;12.81;91.19
51259;BME280;37327;54.254;18.504;2022-07-29T02:22:41;101664.19;;;12.82;91.41
51259;BME280;37327;54.254;18.504;2022-07-29T02:25:58;101661.48;;;12.82;91.78
51259;BME280;37327;54.254;18.504;2022-07-29T02:29:13;101659.09;;;12.79;91.85
51259;BME280;37327;54.254;18.504;2022-07-29T02:32:26;101661.99;;;12.77;92.05
51259;BME280;37327;54.254;18.504;2022-07-29T02:35:42;101652.99;;;12.77;92.05
51259;BME280;37327;54.254;18.504;2022-07-29T02:42:12;101659.45;;;12.76;91.87
51259;BME280;37327;54.254;18.504;2022-07-29T02:45:22;101660.80;;;12.72;91.86
51259;BME280;37327;54.254;18.504;2022-07-29T02:48:37;101660.28;;;12.68;91.41
51259;BME280;37327;54.254;18.504;2022-07-29T02:55:10;101661.48;;;12.66;92.12
51259;BME280;37327;54.254;18.504;2022-07-29T02:58:49;101663.51;;;12.63;92.76
51259;BME280;37327;54.254;18.504;2022-07-29T03:05:04;101662.63;;;12.63;92.65
51259;BME280;37327;54.254;18.504;2022-07-29T03:08:13;101661.80;;;12.62;92.45
51259;BME280;37327;54.254;18.504;2022-07-29T03:11:26;101655.54;;;12.62;92.59
51259;BME280;37327;54.254;18.504;2022-07-29T03:14:35;101656.38;;;12.62;92.55
51259;BME280;37327;54.254;18.504;2022-07-29T03:17:43;101655.85;;;12.59;92.71
51259;BME280;37327;54.254;18.504;2022-07-29T03:20:56;101656.21;;;12.56;93.19
51259;BME280;37327;54.254;18.504;2022-07-29T03:24:02;101659.23;;;12.53;94.04
51259;BME280;37327;54.254;18.504;2022-07-29T03:27:14;101663.97;;;12.51;94.42
51259;BME280;37327;54.254;18.504;2022-07-29T03:30:23;101653.14;;;12.51;93.81
51259;BME280;37327;54.254;18.504;2022-07-29T03:33:34;101653.66;;;12.54;93.83
51259;BME280;37327;54.254;18.504;2022-07-29T03:36:45;101663.98;;;12.59;93.77
51259;BME280;37327;54.254;18.504;2022-07-29T03:39:57;101670.08;;;12.61;94.37
51259;BME280;37327;54.254;18.504;2022-07-29T03:43:09;101667.21;;;12.62;94.40
51259;BME280;37327;54.254;18.504;2022-07-29T03:46:16;101666.02;;;12.65;94.70
51259;BME280;37327;54.254;18.504;2022-07-29T03:49:24;101670.27;;;12.68;94.40
51259;BME280;37327;54.254;18.504;2022-07-29T03:52:38;101671.12;;;12.68;94.19
51259;BME280;37327;54.254;18.504;2022-07-29T03:55:52;101669.92;;;12.71;94.59
51259;BME280;37327;54.254;18.504;2022-07-29T03:59:09;101672.99;;;12.76;94.55
51259;BME280;37327;54.254;18.504;2022-07-29T04:02:22;101678.93;;;12.79;94.65
51259;BME280;37327;54.254;18.504;2022-07-29T04:05:33;101683.16;;;12.82;94.48
51259;BME280;37327;54.254;18.504;2022-07-29T04:09:05;101670.80;;;12.88;95.05
51259;BME280;37327;54.254;18.504;2022-07-29T04:12:14;101673.66;;;12.94;94.98
51259;BME280;37327;54.254;18.504;2022-07-29T04:15:22;101675.70;;;13.00;95.07
51259;BME280;37327;54.254;18.504;2022-07-29T04:18:36;101675.54;;;13.02;95.59
51259;BME280;37327;54.254;18.504;2022-07-29T04:21:47;101675.21;;;13.05;95.85
51259;BME280;37327;54.254;18.504;2022-07-29T04:24:56;101675.36;;;13.12;95.91
51259;BME280;37327;54.254;18.504;2022-07-29T04:28:28;101671.97;;;13.18;96.34
51259;BME280;37327;54.254;18.504;2022-07-29T04:31:40;101681.80;;;13.27;96.91
51259;BME280;37327;54.254;18.504;2022-07-29T04:34:51;101685.39;;;13.36;96.92
51259;BME280;37327;54.254;18.504;2022-07-29T04:38:04;101676.04;;;13.47;97.06
51259;BME280;37327;54.254;18.504;2022-07-29T04:41:15;101679.23;;;13.58;97.50
51259;BME280;37327;54.254;18.504;2022-07-29T04:44:27;101682.80;;;13.67;97.65
51259;BME280;37327;54.254;18.504;2022-07-29T04:47:41;101681.93;;;13.75;97.15
51259;BME280;37327;54.254;18.504;2022-07-29T04:50:56;101679.52;;;13.80;97.26
51259;BME280;37327;54.254;18.504;2022-07-29T04:54:08;101686.95;;;13.86;97.88
51259;BME280;37327;54.254;18.504;2022-07-29T04:57:20;101689.84;;;13.93;98.43
51259;BME280;37327;54.254;18.504;2022-07-29T05:00:31;101675.55;;;13.99;98.73
51259;BME280;37327;54.254;18.504;2022-07-29T05:03:44;101680.77;;;14.09;99.18
51259;BME280;37327;54.254;18.504;2022-07-29T05:06:58;101686.49;;;14.22;99.16
51259;BME280;37327;54.254;18.504;2022-07-29T05:10:09;101689.49;;;14.35;99.49
51259;BME280;37327;54.254;18.504;2022-07-29T05:13:31;101687.02;;;14.49;99.46
51259;BME280;37327;54.254;18.504;2022-07-29T05:16:42;101678.49;;;14.60;100.00
51259;BME280;37327;54.254;18.504;2022-07-29T05:19:54;101678.92;;;14.72;100.00
51259;BME280;37327;54.254;18.504;2022-07-29T05:23:08;101679.09;;;14.93;100.00
51259;BME280;37327;54.254;18.504;2022-07-29T05:26:20;101674.73;;;15.07;100.00
51259;BME280;37327;54.254;18.504;2022-07-29T05:29:27;101676.18;;;15.18;100.00
51259;BME280;37327;54.254;18.504;2022-07-29T05:32:58;101673.87;;;15.30;100.00
51259;BME280;37327;54.254;18.504;2022-07-29T05:36:12;101688.52;;;15.44;100.00
51259;BME280;37327;54.254;18.504;2022-07-29T05:39:23;101678.87;;;15.56;100.00
51259;BME280;37327;54.254;18.504;2022-07-29T05:42:35;101676.34;;;15.69;99.23
51259;BME280;37327;54.254;18.504;2022-07-29T05:45:46;101677.23;;;15.85;97.54
51259;BME280;37327;54.254;18.504;2022-07-29T05:48:57;101675.53;;;15.98;96.18
51259;BME280;37327;54.254;18.504;2022-07-29T05:52:08;101680.98;;;16.13;95.49
51259;BME280;37327;54.254;18.504;2022-07-29T05:55:19;101674.36;;;16.23;92.55
51259;BME280;37327;54.254;18.504;2022-07-29T05:58:31;101674.52;;;16.36;91.66
51259;BME280;37327;54.254;18.504;2022-07-29T06:01:42;101667.34;;;16.50;90.64
51259;BME280;37327;54.254;18.504;2022-07-29T06:04:58;101663.27;;;16.61;88.45
51259;BME280;37327;54.254;18.504;2022-07-29T06:08:08;101673.86;;;16.70;87.07
51259;BME280;37327;54.254;18.504;2022-07-29T06:11:16;101670.44;;;16.83;86.69
51259;BME280;37327;54.254;18.504;2022-07-29T06:14:44;101668.49;;;16.98;87.28
51259;BME280;37327;54.254;18.504;2022-07-29T06:17:48;101676.94;;;17.04;84.45
51259;BME280;37327;54.254;18.504;2022-07-29T06:20:55;101675.35;;;17.16;84.59
51259;BME280;37327;54.254;18.504;2022-07-29T06:24:05;101684.04;;;17.26;82.80
51259;BME280;37327;54.254;18.504;2022-07-29T06:27:12;101676.77;;;17.33;81.86
51259;BME280;37327;54.254;18.504;2022-07-29T06:30:24;101691.76;;;17.44;81.29
51259;BME280;37327;54.254;18.504;2022-07-29T06:33:55;101686.76;;;17.48;78.71
51259;BME280;37327;54.254;18.504;2022-07-29T06:37:07;101684.52;;;17.58;79.26
51259;BME280;37327;54.254;18.504;2022-07-29T06:40:15;101686.82;;;17.61;77.69
51259;BME280;37327;54.254;18.504;2022-07-29T06:43:41;101681.98;;;17.56;75.94
51259;BME280;37327;54.254;18.504;2022-07-29T06:46:53;101680.78;;;17.66;76.41
51259;BME280;37327;54.254;18.504;2022-07-29T06:50:06;101681.26;;;17.76;76.70
51259;BME280;37327;54.254;18.504;2022-07-29T06:53:19;101680.11;;;17.92;75.65
51259;BME280;37327;54.254;18.504;2022-07-29T06:56:24;101685.02;;;18.03;74.38
51259;BME280;37327;54.254;18.504;2022-07-29T07:00:01;101682.48;;;18.02;72.30
51259;BME280;37327;54.254;18.504;2022-07-29T07:03:17;101681.22;;;18.04;72.60
51259;BME280;37327;54.254;18.504;2022-07-29T07:06:30;101683.95;;;18.04;73.32
51259;BME280;37327;54.254;18.504;2022-07-29T07:09:39;101686.73;;;18.11;72.88
51259;BME280;37327;54.254;18.504;2022-07-29T07:12:51;101689.09;;;18.21;74.08
51259;BME280;37327;54.254;18.504;2022-07-29T07:16:01;101686.35;;;18.21;72.51
51259;BME280;37327;54.254;18.504;2022-07-29T07:19:06;101683.00;;;18.25;72.49
51259;BME280;37327;54.254;18.504;2022-07-29T07:22:37;101679.04;;;18.34;72.51
51259;BME280;37327;54.254;18.504;2022-07-29T07:25:48;101674.45;;;18.42;71.99
51259;BME280;37327;54.254;18.504;2022-07-29T07:28:57;101682.42;;;18.43;71.07
51259;BME280;37327;54.254;18.504;2022-07-29T07:32:10;101677.19;;;18.42;70.19
51259;BME280;37327;54.254;18.504;2022-07-29T07:35:21;101682.03;;;18.46;70.71
51259;BME280;37327;54.254;18.504;2022-07-29T07:38:32;101678.46;;;18.46;69.94
51259;BME280;37327;54.254;18.504;2022-07-29T07:41:46;101679.53;;;18.51;69.62
51259;BME280;37327;54.254;18.504;2022-07-29T07:44:57;101677.44;;;18.53;70.10
51259;BME280;37327;54.254;18.504;2022-07-29T07:48:10;101679.73;;;18.57;69.74
51259;BME280;37327;54.254;18.504;2022-07-29T07:51:39;101678.30;;;18.67;67.49
51259;BME280;37327;54.254;18.504;2022-07-29T07:54:44;101679.20;;;18.81;69.48
51259;BME280;37327;54.254;18.504;2022-07-29T07:57:48;101678.36;;;18.87;67.52
51259;BME280;37327;54.254;18.504;2022-07-29T08:00:57;101679.23;;;18.94;67.67
51259;BME280;37327;54.254;18.504;2022-07-29T08:04:09;101685.13;;;19.05;66.32
51259;BME280;37327;54.254;18.504;2022-07-29T08:07:21;101680.51;;;19.12;65.90
51259;BME280;37327;54.254;18.504;2022-07-29T08:10:34;101689.77;;;19.24;66.20
51259;BME280;37327;54.254;18.504;2022-07-29T08:14:00;101678.36;;;19.41;66.14
51259;BME280;37327;54.254;18.504;2022-07-29T08:17:12;101673.30;;;19.58;65.02
51259;BME280;37327;54.254;18.504;2022-07-29T08:20:24;101683.20;;;19.79;64.11
51259;BME280;37327;54.254;18.504;2022-07-29T08:23:37;101683.33;;;20.04;63.78
51259;BME280;37327;54.254;18.504;2022-07-29T08:27:02;101689.98;;;20.28;62.29
51259;BME280;37327;54.254;18.504;2022-07-29T08:30:18;101692.93;;;20.33;60.81
51259;BME280;37327;54.254;18.504;2022-07-29T08:33:28;101682.13;;;20.38;60.45
51259;BME280;37327;54.254;18.504;2022-07-29T08:36:39;101693.62;;;20.67;61.22
51259;BME280;37327;54.254;18.504;2022-07-29T08:39:52;101691.32;;;20.96;60.08
51259;BME280;37327;54.254;18.504;2022-07-29T08:46:24;101692.83;;;21.17;56.79
51259;BME280;37327;54.254;18.504;2022-07-29T08:49:35;101688.32;;;21.29;56.31
51259;BME280;37327;54.254;18.504;2022-07-29T08:52:47;101688.64;;;21.64;57.96
51259;BME280;37327;54.254;18.504;2022-07-29T08:55:58;101681.32;;;21.77;53.66
51259;BME280;37327;54.254;18.504;2022-07-29T08:59:36;101688.56;;;21.71;52.75
51259;BME280;37327;54.254;18.504;2022-07-29T09:04:34;101688.56;;;21.71;52.59
51259;BME280;37327;54.254;18.504;2022-07-29T09:07:45;101682.02;;;21.72;53.46
51259;BME280;37327;54.254;18.504;2022-07-29T09:11:00;101686.95;;;21.63;53.75
51259;BME280;37327;54.254;18.504;2022-07-29T09:14:17;101689.68;;;21.45;54.04
51259;BME280;37327;54.254;18.504;2022-07-29T09:20:53;101687.77;;;20.88;53.67
51259;BME280;37327;54.254;18.504;2022-07-29T09:24:16;101691.05;;;20.72;53.54
51259;BME280;37327;54.254;18.504;2022-07-29T09:27:25;101679.14;;;20.85;52.59
51259;BME280;37327;54.254;18.504;2022-07-29T09:30:50;101687.30;;;21.23;52.46
51259;BME280;37327;54.254;18.504;2022-07-29T09:33:59;101675.96;;;21.63;51.89
51259;BME280;37327;54.254;18.504;2022-07-29T09:37:12;101670.25;;;22.02;51.34
51259;BME280;37327;54.254;18.504;2022-07-29T09:40:28;101675.69;;;22.27;50.46
51259;BME280;37327;54.254;18.504;2022-07-29T09:47:07;101669.87;;;22.17;50.27
51259;BME280;37327;54.254;18.504;2022-07-29T09:50:19;101672.52;;;22.23;49.49
51259;BME280;37327;54.254;18.504;2022-07-29T09:53:37;101669.73;;;22.60;49.41
51259;BME280;37327;54.254;18.504;2022-07-29T09:56:50;101660.81;;;22.88;47.47
51259;BME280;37327;54.254;18.504;2022-07-29T10:00:11;101658.62;;;23.09;47.15
51259;BME280;37327;54.254;18.504;2022-07-29T10:03:23;101647.98;;;23.24;45.64
51259;BME280;37327;54.254;18.504;2022-07-29T10:06:35;101650.23;;;23.51;46.78
51259;BME280;37327;54.254;18.504;2022-07-29T10:09:56;101643.78;;;23.81;45.83
51259;BME280;37327;54.254;18.504;2022-07-29T10:13:04;101650.72;;;23.83;46.21
51259;BME280;37327;54.254;18.504;2022-07-29T10:16:14;101645.83;;;23.50;46.70
51259;BME280;37327;54.254;18.504;2022-07-29T10:19:21;101641.97;;;23.28;46.58
51259;BME280;37327;54.254;18.504;2022-07-29T10:22:35;101643.58;;;22.81;46.59
51259;BME280;37327;54.254;18.504;2022-07-29T10:25:45;101640.29;;;22.61;48.47
51259;BME280;37327;54.254;18.504;2022-07-29T10:28:58;101644.30;;;22.88;49.70
51259;BME280;37327;54.254;18.504;2022-07-29T10:32:14;101642.03;;;22.85;49.31
51259;BME280;37327;54.254;18.504;2022-07-29T10:45:30;101640.48;;;22.47;49.94
51259;BME280;37327;54.254;18.504;2022-07-29T10:52:13;101643.27;;;23.01;49.53
51259;BME280;37327;54.254;18.504;2022-07-29T10:55:36;101640.11;;;22.86;48.45
51259;BME280;37327;54.254;18.504;2022-07-29T11:25:46;101624.62;;;23.39;46.03
51259;BME280;37327;54.254;18.504;2022-07-29T11:32:24;101635.62;;;23.03;44.78
51259;BME280;37327;54.254;18.504;2022-07-29T11:35:38;101619.41;;;22.83;44.70
51259;BME280;37327;54.254;18.504;2022-07-29T11:38:48;101629.67;;;22.76;43.51
51259;BME280;37327;54.254;18.504;2022-07-29T11:45:47;101630.88;;;22.80;43.46
51259;BME280;37327;54.254;18.504;2022-07-29T11:48:59;101637.96;;;22.88;44.08
51259;BME280;37327;54.254;18.504;2022-07-29T11:52:15;101641.69;;;22.94;44.22
51259;BME280;37327;54.254;18.504;2022-07-29T11:55:27;101641.95;;;23.04;44.37
51259;BME280;37327;54.254;18.504;2022-07-29T11:58:44;101632.46;;;23.00;43.44
51259;BME280;37327;54.254;18.504;2022-07-29T12:01:55;101644.30;;;22.88;43.18
51259;BME280;37327;54.254;18.504;2022-07-29T12:05:10;101642.73;;;22.81;43.15
51259;BME280;37327;54.254;18.504;2022-07-29T12:08:22;101628.02;;;22.75;41.82
51259;BME280;37327;54.254;18.504;2022-07-29T12:11:35;101638.68;;;22.83;43.49
51259;BME280;37327;54.254;18.504;2022-07-29T12:14:50;101634.25;;;22.94;43.03
51259;BME280;37327;54.254;18.504;2022-07-29T12:21:22;101629.22;;;22.79;42.96
51259;BME280;37327;54.254;18.504;2022-07-29T12:31:15;101612.34;;;22.76;42.68
51259;BME280;37327;54.254;18.504;2022-07-29T12:34:29;101621.30;;;22.83;41.81
51259;BME280;37327;54.254;18.504;2022-07-29T12:37:43;101613.05;;;22.83;42.07
51259;BME280;37327;54.254;18.504;2022-07-29T12:41:01;101623.59;;;22.86;42.27
51259;BME280;37327;54.254;18.504;2022-07-29T12:44:18;101627.16;;;22.75;41.71
51259;BME280;37327;54.254;18.504;2022-07-29T12:47:30;101635.18;;;22.76;41.75
51259;BME280;37327;54.254;18.504;2022-07-29T12:54:12;101625.23;;;22.63;42.16
51259;BME280;37327;54.254;18.504;2022-07-29T12:57:26;101631.50;;;22.40;41.50
51259;BME280;37327;54.254;18.504;2022-07-29T13:00:39;101634.89;;;22.05;42.03
51259;BME280;37327;54.254;18.504;2022-07-29T13:03:59;101630.87;;;21.89;43.15
51259;BME280;37327;54.254;18.504;2022-07-29T13:07:15;101633.98;;;21.75;42.80
51259;BME280;37327;54.254;18.504;2022-07-29T13:10:35;101630.02;;;21.71;43.35
51259;BME280;37327;54.254;18.504;2022-07-29T13:13:54;101628.64;;;21.61;42.77
51259;BME280;37327;54.254;18.504;2022-07-29T13:20:30;101635.35;;;21.47;44.29
51259;BME280;37327;54.254;18.504;2022-07-29T13:23:39;101626.49;;;21.45;44.51
51259;BME280;37327;54.254;18.504;2022-07-29T13:26:56;101631.86;;;21.33;44.80
51259;BME280;37327;54.254;18.504;2022-07-29T13:30:11;101623.84;;;21.32;45.07
51259;BME280;37327;54.254;18.504;2022-07-29T13:33:23;101624.76;;;21.25;46.23
51259;BME280;37327;54.254;18.504;2022-07-29T13:36:37;101623.53;;;21.21;45.69
51259;BME280;37327;54.254;18.504;2022-07-29T13:39:50;101618.59;;;21.05;45.67
51259;BME280;37327;54.254;18.504;2022-07-29T13:43:04;101621.01;;;20.95;45.80
51259;BME280;37327;54.254;18.504;2022-07-29T13:46:08;101631.44;;;20.86;44.76
51259;BME280;37327;54.254;18.504;2022-07-29T13:49:14;101625.57;;;20.76;44.78
51259;BME280;37327;54.254;18.504;2022-07-29T13:52:52;101627.14;;;20.65;45.88
51259;BME280;37327;54.254;18.504;2022-07-29T13:56:03;101630.32;;;20.62;46.89
51259;BME280;37327;54.254;18.504;2022-07-29T13:59:18;101631.18;;;20.56;46.18
51259;BME280;37327;54.254;18.504;2022-07-29T14:02:34;101632.02;;;20.63;47.22
51259;BME280;37327;54.254;18.504;2022-07-29T14:05:48;101617.23;;;20.64;47.20
51259;BME280;37327;54.254;18.504;2022-07-29T14:08:55;101629.48;;;20.61;45.74
51259;BME280;37327;54.254;18.504;2022-07-29T14:12:07;101629.06;;;20.64;47.10
51259;BME280;37327;54.254;18.504;2022-07-29T14:15:15;101633.25;;;20.67;48.24
51259;BME280;37327;54.254;18.504;2022-07-29T14:18:21;101628.60;;;20.67;47.70
51259;BME280;37327;54.254;18.504;2022-07-29T14:21:51;101621.45;;;20.66;47.35
51259;BME280;37327;54.254;18.504;2022-07-29T14:25:06;101611.73;;;20.64;47.80
51259;BME280;37327;54.254;18.504;2022-07-29T14:28:17;101616.73;;;20.74;48.90
51259;BME280;37327;54.254;18.504;2022-07-29T14:31:28;101608.24;;;20.82;49.05
51259;BME280;37327;54.254;18.504;2022-07-29T14:34:45;101602.08;;;20.86;49.20
51259;BME280;37327;54.254;18.504;2022-07-29T14:37:58;101608.19;;;20.88;47.98
51259;BME280;37327;54.254;18.504;2022-07-29T14:41:09;101602.26;;;20.92;48.97
51259;BME280;37327;54.254;18.504;2022-07-29T14:44:21;101592.54;;;20.89;49.25
51259;BME280;37327;54.254;18.504;2022-07-29T14:47:37;101596.70;;;20.98;49.85
51259;BME280;37327;54.254;18.504;2022-07-29T14:50:53;101604.31;;;20.96;48.70
51259;BME280;37327;54.254;18.504;2022-07-29T14:54:07;101606.66;;;20.93;47.74
51259;BME280;37327;54.254;18.504;2022-07-29T14:57:18;101606.88;;;20.91;47.94
51259;BME280;37327;54.254;18.504;2022-07-29T15:00:31;101599.73;;;20.90;48.11
51259;BME280;37327;54.254;18.504;2022-07-29T15:03:45;101601.61;;;20.89;48.33
51259;BME280;37327;54.254;18.504;2022-07-29T15:06:52;101591.89;;;20.94;47.12
51259;BME280;37327;54.254;18.504;2022-07-29T15:10:04;101592.54;;;20.89;48.06
51259;BME280;37327;54.254;18.504;2022-07-29T15:13:17;101595.18;;;20.77;48.13
51259;BME280;37327;54.254;18.504;2022-07-29T15:16:30;101588.55;;;20.60;47.87
51259;BME280;37327;54.254;18.504;2022-07-29T15:19:37;101593.66;;;20.49;48.50
51259;BME280;37327;54.254;18.504;2022-07-29T15:22:50;101605.34;;;20.38;49.25
51259;BME280;37327;54.254;18.504;2022-07-29T15:26:03;101598.05;;;20.25;49.87
51259;BME280;37327;54.254;18.504;2022-07-29T15:29:11;101589.88;;;20.12;50.01
51259;BME280;37327;54.254;18.504;2022-07-29T15:32:50;101596.47;;;20.04;50.19
51259;BME280;37327;54.254;18.504;2022-07-29T15:36:07;101593.10;;;20.02;50.40
51259;BME280;37327;54.254;18.504;2022-07-29T15:39:20;101586.38;;;19.98;49.96
51259;BME280;37327;54.254;18.504;2022-07-29T15:42:27;101576.30;;;19.92;50.10
51259;BME280;37327;54.254;18.504;2022-07-29T15:45:37;101581.99;;;19.84;50.89
51259;BME280;37327;54.254;18.504;2022-07-29T15:48:44;101580.34;;;19.69;51.04
51259;BME280;37327;54.254;18.504;2022-07-29T15:51:53;101576.16;;;19.60;50.72
51259;BME280;37327;54.254;18.504;2022-07-29T15:55:04;101569.44;;;19.56;50.91
51259;BME280;37327;54.254;18.504;2022-07-29T15:58:12;101569.60;;;19.68;51.55
51259;BME280;37327;54.254;18.504;2022-07-29T16:01:25;101565.80;;;19.82;51.88
51259;BME280;37327;54.254;18.504;2022-07-29T16:04:33;101566.16;;;19.92;51.83
51259;BME280;37327;54.254;18.504;2022-07-29T16:07:48;101562.34;;;20.00;51.81
51259;BME280;37327;54.254;18.504;2022-07-29T16:11:00;101562.75;;;19.97;51.82
51259;BME280;37327;54.254;18.504;2022-07-29T16:14:12;101562.75;;;19.97;52.07
51259;BME280;37327;54.254;18.504;2022-07-29T16:17:25;101563.79;;;20.03;52.33
51259;BME280;37327;54.254;18.504;2022-07-29T16:20:38;101562.75;;;19.97;51.20
51259;BME280;37327;54.254;18.504;2022-07-29T16:23:47;101557.95;;;19.86;51.90
51259;BME280;37327;54.254;18.504;2022-07-29T16:27:00;101561.57;;;19.80;51.70
51259;BME280;37327;54.254;18.504;2022-07-29T16:30:14;101561.59;;;19.66;50.85
51259;BME280;37327;54.254;18.504;2022-07-29T16:33:25;101551.09;;;19.57;51.19
51259;BME280;37327;54.254;18.504;2022-07-29T16:36:41;101553.45;;;19.53;51.55
51259;BME280;37327;54.254;18.504;2022-07-29T16:39:54;101550.25;;;19.56;52.57
51259;BME280;37327;54.254;18.504;2022-07-29T16:46:12;101541.21;;;19.56;53.62
51259;BME280;37327;54.254;18.504;2022-07-29T16:49:29;101544.60;;;19.51;54.30
51259;BME280;37327;54.254;18.504;2022-07-29T16:52:41;101548.17;;;19.45;54.68
51259;BME280;37327;54.254;18.504;2022-07-29T16:55:55;101538.97;;;19.32;55.41
51259;BME280;37327;54.254;18.504;2022-07-29T16:59:10;101547.83;;;19.28;55.62
51259;BME280;37327;54.254;18.504;2022-07-29T17:02:25;101543.21;;;19.22;56.16
51259;BME280;37327;54.254;18.504;2022-07-29T17:05:40;101545.53;;;19.18;56.63
51259;BME280;37327;54.254;18.504;2022-07-29T17:09:13;101542.79;;;19.11;56.91
51259;BME280;37327;54.254;18.504;2022-07-29T17:12:28;101547.84;;;19.08;56.94
51259;BME280;37327;54.254;18.504;2022-07-29T17:15:43;101544.92;;;19.03;57.41
51259;BME280;37327;54.254;18.504;2022-07-29T17:18:55;101544.70;;;18.98;56.75
51259;BME280;37327;54.254;18.504;2022-07-29T17:22:04;101551.66;;;19.00;56.71
51259;BME280;37327;54.254;18.504;2022-07-29T17:25:19;101545.55;;;19.05;56.90
51259;BME280;37327;54.254;18.504;2022-07-29T17:28:32;101540.71;;;19.07;56.61
51259;BME280;37327;54.254;18.504;2022-07-29T17:31:47;101552.05;;;19.04;56.80
51259;BME280;37327;54.254;18.504;2022-07-29T17:34:59;101551.88;;;18.99;57.71
51259;BME280;37327;54.254;18.504;2022-07-29T17:38:17;101552.11;;;18.90;58.38
51259;BME280;37327;54.254;18.504;2022-07-29T17:41:35;101544.09;;;18.82;58.60
51259;BME280;37327;54.254;18.504;2022-07-29T17:44:50;101545.96;;;18.68;58.59
51259;BME280;37327;54.254;18.504;2022-07-29T17:48:22;101550.17;;;18.58;60.39
51259;BME280;37327;54.254;18.504;2022-07-29T17:51:32;101546.18;;;18.53;60.87
51259;BME280;37327;54.254;18.504;2022-07-29T17:54:42;101551.23;;;18.50;61.29
51259;BME280;37327;54.254;18.504;2022-07-29T17:57:53;101542.36;;;18.41;62.07
51259;BME280;37327;54.254;18.504;2022-07-29T18:01:02;101550.36;;;18.36;62.62
51259;BME280;37327;54.254;18.504;2022-07-29T18:04:33;101546.13;;;18.33;64.20
51259;BME280;37327;54.254;18.504;2022-07-29T18:07:45;101549.94;;;18.32;64.75
51259;BME280;37327;54.254;18.504;2022-07-29T18:10:56;101544.88;;;18.29;64.89